sensor_id;sensor_type;location;lat;lon;timestamp;P1;durP1;ratioP1;P2;durP2;ratioP2
18754;SDS011;35061;47.664;9.166;2023-04-03T00:01:20;3.10;;;2.75;;
18754;SDS011;35061;47.664;9.166;2023-04-03T00:03:48;3.95;;;3.40;;
18754;SDS011;35061;47.664;9.166;2023-04-03T00:06:16;3.28;;;2.97;;
18754;SDS011;35061;47.664;9.166;2023-04-03T00:08:44;4.22;;;3.40;;
18754;SDS011;35061;47.664;9.166;2023-04-03T00:11:13;3.20;;;2.87;;
18754;SDS011;35061;47.664;9.166;2023-04-03T00:13:41;3.08;;;2.87;;
18754;SDS011;35061;47.664;9.166;2023-04-03T00:16:09;3.08;;;2.47;;
18754;SDS011;35061;47.664;9.166;2023-04-03T00:18:38;3.20;;;2.90;;
18754;SDS011;35061;47.664;9.166;2023-04-03T00:21:08;3.83;;;3.40;;
18754;SDS011;35061;47.664;9.166;2023-04-03T00:23:37;4.45;;;2.70;;
18754;SDS011;35061;47.664;9.166;2023-04-03T00:26:05;3.65;;;3.28;;
18754;SDS011;35061;47.664;9.166;2023-04-03T00:28:33;3.12;;;2.83;;
18754;SDS011;35061;47.664;9.166;2023-04-03T00:31:01;3.05;;;2.75;;
18754;SDS011;35061;47.664;9.166;2023-04-03T00:33:30;3.22;;;2.83;;
18754;SDS011;35061;47.664;9.166;2023-04-03T00:35:57;4.10;;;2.90;;
18754;SDS011;35061;47.664;9.166;2023-04-03T00:38:26;4.43;;;3.97;;
18754;SDS011;35061;47.664;9.166;2023-04-03T00:40:53;3.47;;;3.12;;
18754;SDS011;35061;47.664;9.166;2023-04-03T00:43:22;3.53;;;3.22;;
18754;SDS011;35061;47.664;9.166;2023-04-03T00:45:52;3.70;;;3.40;;
18754;SDS011;35061;47.664;9.166;2023-04-03T00:50:55;3.22;;;2.92;;
18754;SDS011;35061;47.664;9.166;2023-04-03T00:53:26;3.50;;;3.20;;
18754;SDS011;35061;47.664;9.166;2023-04-03T00:55:58;3.30;;;3.00;;
18754;SDS011;35061;47.664;9.166;2023-04-03T00:58:30;4.15;;;3.40;;
18754;SDS011;35061;47.664;9.166;2023-04-03T01:01:16;5.53;;;4.20;;
18754;SDS011;35061;47.664;9.166;2023-04-03T01:03:48;4.25;;;3.85;;
18754;SDS011;35061;47.664;9.166;2023-04-03T01:06:16;4.07;;;3.62;;
18754;SDS011;35061;47.664;9.166;2023-04-03T01:08:48;4.15;;;3.75;;
18754;SDS011;35061;47.664;9.166;2023-04-03T01:11:17;4.18;;;3.87;;
18754;SDS011;35061;47.664;9.166;2023-04-03T01:13:46;3.87;;;3.55;;
18754;SDS011;35061;47.664;9.166;2023-04-03T01:16:14;4.47;;;3.80;;
18754;SDS011;35061;47.664;9.166;2023-04-03T01:18:43;3.00;;;2.62;;
18754;SDS011;35061;47.664;9.166;2023-04-03T01:23:58;3.72;;;3.15;;
18754;SDS011;35061;47.664;9.166;2023-04-03T01:26:27;2.95;;;2.65;;
18754;SDS011;35061;47.664;9.166;2023-04-03T01:28:55;3.20;;;2.90;;
18754;SDS011;35061;47.664;9.166;2023-04-03T01:31:28;3.30;;;3.00;;
18754;SDS011;35061;47.664;9.166;2023-04-03T01:34:13;3.17;;;2.87;;
18754;SDS011;35061;47.664;9.166;2023-04-03T01:36:41;3.22;;;2.92;;
18754;SDS011;35061;47.664;9.166;2023-04-03T01:39:09;3.15;;;2.83;;
18754;SDS011;35061;47.664;9.166;2023-04-03T01:41:37;3.00;;;2.72;;
18754;SDS011;35061;47.664;9.166;2023-04-03T01:44:05;2.90;;;2.70;;
18754;SDS011;35061;47.664;9.166;2023-04-03T01:46:33;3.35;;;3.05;;
18754;SDS011;35061;47.664;9.166;2023-04-03T01:49:01;3.20;;;2.90;;
18754;SDS011;35061;47.664;9.166;2023-04-03T01:51:30;4.93;;;2.80;;
18754;SDS011;35061;47.664;9.166;2023-04-03T01:53:58;3.47;;;3.17;;
18754;SDS011;35061;47.664;9.166;2023-04-03T01:56:26;3.20;;;2.90;;
18754;SDS011;35061;47.664;9.166;2023-04-03T01:58:54;3.25;;;2.90;;
18754;SDS011;35061;47.664;9.166;2023-04-03T02:01:22;3.12;;;2.83;;
18754;SDS011;35061;47.664;9.166;2023-04-03T02:03:50;3.03;;;2.72;;
18754;SDS011;35061;47.664;9.166;2023-04-03T02:06:18;2.90;;;2.70;;
18754;SDS011;35061;47.664;9.166;2023-04-03T02:08:46;2.92;;;2.72;;
18754;SDS011;35061;47.664;9.166;2023-04-03T02:11:14;3.42;;;3.10;;
18754;SDS011;35061;47.664;9.166;2023-04-03T02:13:42;4.18;;;3.30;;
18754;SDS011;35061;47.664;9.166;2023-04-03T02:16:10;3.90;;;3.50;;
18754;SDS011;35061;47.664;9.166;2023-04-03T02:18:39;5.57;;;3.47;;
18754;SDS011;35061;47.664;9.166;2023-04-03T02:21:07;3.78;;;3.40;;
18754;SDS011;35061;47.664;9.166;2023-04-03T02:23:35;3.92;;;3.50;;
18754;SDS011;35061;47.664;9.166;2023-04-03T02:26:08;4.32;;;3.83;;
18754;SDS011;35061;47.664;9.166;2023-04-03T02:28:38;4.18;;;3.75;;
18754;SDS011;35061;47.664;9.166;2023-04-03T02:31:07;4.20;;;3.80;;
18754;SDS011;35061;47.664;9.166;2023-04-03T02:33:36;4.10;;;3.70;;
18754;SDS011;35061;47.664;9.166;2023-04-03T02:36:05;4.30;;;3.90;;
18754;SDS011;35061;47.664;9.166;2023-04-03T02:38:34;4.45;;;3.87;;
18754;SDS011;35061;47.664;9.166;2023-04-03T02:41:03;4.72;;;4.10;;
18754;SDS011;35061;47.664;9.166;2023-04-03T02:43:32;4.05;;;3.70;;
18754;SDS011;35061;47.664;9.166;2023-04-03T02:46:00;4.12;;;3.75;;
18754;SDS011;35061;47.664;9.166;2023-04-03T02:48:28;4.45;;;4.05;;
18754;SDS011;35061;47.664;9.166;2023-04-03T02:50:57;4.68;;;3.95;;
18754;SDS011;35061;47.664;9.166;2023-04-03T02:53:25;4.00;;;3.50;;
18754;SDS011;35061;47.664;9.166;2023-04-03T02:55:53;4.15;;;3.70;;
18754;SDS011;35061;47.664;9.166;2023-04-03T02:58:20;4.10;;;3.65;;
18754;SDS011;35061;47.664;9.166;2023-04-03T03:00:48;3.62;;;3.33;;
18754;SDS011;35061;47.664;9.166;2023-04-03T03:03:16;4.57;;;3.58;;
18754;SDS011;35061;47.664;9.166;2023-04-03T03:05:44;5.22;;;4.10;;
18754;SDS011;35061;47.664;9.166;2023-04-03T03:08:12;5.53;;;3.60;;
18754;SDS011;35061;47.664;9.166;2023-04-03T03:10:40;4.05;;;3.65;;
18754;SDS011;35061;47.664;9.166;2023-04-03T03:13:08;4.07;;;3.67;;
18754;SDS011;35061;47.664;9.166;2023-04-03T03:15:36;4.53;;;3.72;;
18754;SDS011;35061;47.664;9.166;2023-04-03T03:18:04;4.03;;;3.62;;
18754;SDS011;35061;47.664;9.166;2023-04-03T03:20:32;4.87;;;3.42;;
18754;SDS011;35061;47.664;9.166;2023-04-03T03:23:00;3.53;;;3.22;;
18754;SDS011;35061;47.664;9.166;2023-04-03T03:25:28;3.60;;;3.22;;
18754;SDS011;35061;47.664;9.166;2023-04-03T03:27:56;3.75;;;3.40;;
18754;SDS011;35061;47.664;9.166;2023-04-03T03:30:24;3.40;;;3.10;;
18754;SDS011;35061;47.664;9.166;2023-04-03T03:32:52;4.40;;;2.97;;
18754;SDS011;35061;47.664;9.166;2023-04-03T03:35:20;3.90;;;3.10;;
18754;SDS011;35061;47.664;9.166;2023-04-03T03:37:48;3.83;;;3.45;;
18754;SDS011;35061;47.664;9.166;2023-04-03T03:40:16;3.95;;;3.22;;
18754;SDS011;35061;47.664;9.166;2023-04-03T03:42:44;3.62;;;2.87;;
18754;SDS011;35061;47.664;9.166;2023-04-03T03:45:12;3.70;;;3.22;;
18754;SDS011;35061;47.664;9.166;2023-04-03T03:47:40;4.15;;;3.45;;
18754;SDS011;35061;47.664;9.166;2023-04-03T03:50:08;3.58;;;3.17;;
18754;SDS011;35061;47.664;9.166;2023-04-03T03:52:37;3.03;;;2.72;;
18754;SDS011;35061;47.664;9.166;2023-04-03T03:55:06;2.92;;;2.72;;
18754;SDS011;35061;47.664;9.166;2023-04-03T03:57:34;3.03;;;2.72;;
18754;SDS011;35061;47.664;9.166;2023-04-03T04:00:02;3.62;;;3.10;;
18754;SDS011;35061;47.664;9.166;2023-04-03T04:02:31;3.17;;;2.87;;
18754;SDS011;35061;47.664;9.166;2023-04-03T04:04:59;3.60;;;2.58;;
18754;SDS011;35061;47.664;9.166;2023-04-03T04:07:27;3.70;;;3.03;;
18754;SDS011;35061;47.664;9.166;2023-04-03T04:09:56;2.78;;;2.58;;
18754;SDS011;35061;47.664;9.166;2023-04-03T04:12:24;2.80;;;2.55;;
18754;SDS011;35061;47.664;9.166;2023-04-03T04:14:52;2.80;;;2.60;;
18754;SDS011;35061;47.664;9.166;2023-04-03T04:17:20;2.97;;;2.70;;
18754;SDS011;35061;47.664;9.166;2023-04-03T04:19:49;3.83;;;2.53;;
18754;SDS011;35061;47.664;9.166;2023-04-03T04:22:17;3.12;;;2.40;;
18754;SDS011;35061;47.664;9.166;2023-04-03T04:24:45;2.50;;;2.30;;
18754;SDS011;35061;47.664;9.166;2023-04-03T04:27:13;2.53;;;2.33;;
18754;SDS011;35061;47.664;9.166;2023-04-03T04:29:40;3.25;;;2.78;;
18754;SDS011;35061;47.664;9.166;2023-04-03T04:32:08;2.85;;;2.25;;
18754;SDS011;35061;47.664;9.166;2023-04-03T04:34:36;3.80;;;2.28;;
18754;SDS011;35061;47.664;9.166;2023-04-03T04:37:04;3.42;;;2.70;;
18754;SDS011;35061;47.664;9.166;2023-04-03T04:39:32;2.55;;;2.35;;
18754;SDS011;35061;47.664;9.166;2023-04-03T04:42:00;2.87;;;2.62;;
18754;SDS011;35061;47.664;9.166;2023-04-03T04:44:28;2.97;;;2.47;;
18754;SDS011;35061;47.664;9.166;2023-04-03T04:46:56;2.40;;;2.20;;
18754;SDS011;35061;47.664;9.166;2023-04-03T04:49:24;3.58;;;2.55;;
18754;SDS011;35061;47.664;9.166;2023-04-03T04:51:52;2.08;;;1.80;;
18754;SDS011;35061;47.664;9.166;2023-04-03T04:54:20;3.40;;;2.40;;
18754;SDS011;35061;47.664;9.166;2023-04-03T04:56:48;2.60;;;2.28;;
18754;SDS011;35061;47.664;9.166;2023-04-03T04:59:16;2.55;;;2.35;;
18754;SDS011;35061;47.664;9.166;2023-04-03T05:01:47;2.35;;;2.15;;
18754;SDS011;35061;47.664;9.166;2023-04-03T05:04:15;3.42;;;2.50;;
18754;SDS011;35061;47.664;9.166;2023-04-03T05:06:43;2.62;;;2.10;;
18754;SDS011;35061;47.664;9.166;2023-04-03T05:09:11;2.42;;;2.22;;
18754;SDS011;35061;47.664;9.166;2023-04-03T05:11:39;2.60;;;2.40;;
18754;SDS011;35061;47.664;9.166;2023-04-03T05:14:07;2.50;;;2.25;;
18754;SDS011;35061;47.664;9.166;2023-04-03T05:16:35;2.53;;;2.33;;
18754;SDS011;35061;47.664;9.166;2023-04-03T05:19:04;3.58;;;2.62;;
18754;SDS011;35061;47.664;9.166;2023-04-03T05:21:32;3.67;;;2.70;;
18754;SDS011;35061;47.664;9.166;2023-04-03T05:24:00;4.07;;;2.42;;
18754;SDS011;35061;47.664;9.166;2023-04-03T05:26:31;2.87;;;2.12;;
18754;SDS011;35061;47.664;9.166;2023-04-03T05:28:59;3.10;;;2.20;;
18754;SDS011;35061;47.664;9.166;2023-04-03T05:31:27;2.15;;;1.90;;
18754;SDS011;35061;47.664;9.166;2023-04-03T05:33:56;2.37;;;2.05;;
18754;SDS011;35061;47.664;9.166;2023-04-03T05:36:25;2.87;;;2.60;;
18754;SDS011;35061;47.664;9.166;2023-04-03T05:38:53;2.78;;;2.42;;
18754;SDS011;35061;47.664;9.166;2023-04-03T05:41:23;2.47;;;2.28;;
18754;SDS011;35061;47.664;9.166;2023-04-03T05:43:52;4.95;;;2.20;;
18754;SDS011;35061;47.664;9.166;2023-04-03T05:46:20;2.50;;;2.30;;
18754;SDS011;35061;47.664;9.166;2023-04-03T05:48:48;2.37;;;2.10;;
18754;SDS011;35061;47.664;9.166;2023-04-03T05:51:22;2.42;;;2.22;;
18754;SDS011;35061;47.664;9.166;2023-04-03T05:53:55;2.42;;;2.08;;
18754;SDS011;35061;47.664;9.166;2023-04-03T05:56:28;2.85;;;2.15;;
18754;SDS011;35061;47.664;9.166;2023-04-03T05:58:56;2.00;;;1.90;;
18754;SDS011;35061;47.664;9.166;2023-04-03T06:01:24;2.20;;;1.90;;
18754;SDS011;35061;47.664;9.166;2023-04-03T06:03:52;1.77;;;1.67;;
18754;SDS011;35061;47.664;9.166;2023-04-03T06:06:20;2.28;;;1.95;;
18754;SDS011;35061;47.664;9.166;2023-04-03T06:08:49;2.80;;;2.20;;
18754;SDS011;35061;47.664;9.166;2023-04-03T06:11:18;2.00;;;1.90;;
18754;SDS011;35061;47.664;9.166;2023-04-03T06:13:46;2.42;;;2.10;;
18754;SDS011;35061;47.664;9.166;2023-04-03T06:16:14;2.55;;;2.33;;
18754;SDS011;35061;47.664;9.166;2023-04-03T06:18:44;2.90;;;2.03;;
18754;SDS011;35061;47.664;9.166;2023-04-03T06:21:12;1.85;;;1.62;;
18754;SDS011;35061;47.664;9.166;2023-04-03T06:23:40;4.00;;;2.03;;
18754;SDS011;35061;47.664;9.166;2023-04-03T06:26:09;3.75;;;2.33;;
18754;SDS011;35061;47.664;9.166;2023-04-03T06:28:37;1.90;;;1.77;;
18754;SDS011;35061;47.664;9.166;2023-04-03T06:31:05;3.05;;;2.30;;
18754;SDS011;35061;47.664;9.166;2023-04-03T06:33:33;2.67;;;2.47;;
18754;SDS011;35061;47.664;9.166;2023-04-03T06:36:05;2.40;;;2.20;;
18754;SDS011;35061;47.664;9.166;2023-04-03T06:38:34;3.15;;;2.40;;
18754;SDS011;35061;47.664;9.166;2023-04-03T06:41:02;2.72;;;2.42;;
18754;SDS011;35061;47.664;9.166;2023-04-03T06:43:30;2.80;;;2.40;;
18754;SDS011;35061;47.664;9.166;2023-04-03T06:46:00;2.60;;;2.15;;
18754;SDS011;35061;47.664;9.166;2023-04-03T06:48:29;2.30;;;2.10;;
18754;SDS011;35061;47.664;9.166;2023-04-03T06:50:57;2.90;;;2.60;;
18754;SDS011;35061;47.664;9.166;2023-04-03T06:53:25;2.28;;;2.08;;
18754;SDS011;35061;47.664;9.166;2023-04-03T06:55:53;2.67;;;2.17;;
18754;SDS011;35061;47.664;9.166;2023-04-03T06:58:21;2.87;;;2.65;;
18754;SDS011;35061;47.664;9.166;2023-04-03T07:00:49;2.90;;;2.40;;
18754;SDS011;35061;47.664;9.166;2023-04-03T07:03:17;2.67;;;2.42;;
18754;SDS011;35061;47.664;9.166;2023-04-03T07:05:45;2.67;;;2.37;;
18754;SDS011;35061;47.664;9.166;2023-04-03T07:08:13;2.70;;;1.87;;
18754;SDS011;35061;47.664;9.166;2023-04-03T07:10:41;2.40;;;2.20;;
18754;SDS011;35061;47.664;9.166;2023-04-03T07:13:09;4.10;;;2.67;;
18754;SDS011;35061;47.664;9.166;2023-04-03T07:15:37;2.70;;;2.33;;
18754;SDS011;35061;47.664;9.166;2023-04-03T07:18:05;2.53;;;1.95;;
18754;SDS011;35061;47.664;9.166;2023-04-03T07:20:33;2.50;;;2.08;;
18754;SDS011;35061;47.664;9.166;2023-04-03T07:23:01;2.60;;;2.40;;
18754;SDS011;35061;47.664;9.166;2023-04-03T07:25:29;2.40;;;2.20;;
18754;SDS011;35061;47.664;9.166;2023-04-03T07:27:57;3.45;;;2.85;;
18754;SDS011;35061;47.664;9.166;2023-04-03T07:30:25;2.35;;;2.15;;
18754;SDS011;35061;47.664;9.166;2023-04-03T07:32:53;2.28;;;2.08;;
18754;SDS011;35061;47.664;9.166;2023-04-03T07:35:21;3.42;;;2.47;;
18754;SDS011;35061;47.664;9.166;2023-04-03T07:37:49;2.37;;;2.10;;
18754;SDS011;35061;47.664;9.166;2023-04-03T07:40:17;2.65;;;1.92;;
18754;SDS011;35061;47.664;9.166;2023-04-03T07:42:46;2.30;;;2.10;;
18754;SDS011;35061;47.664;9.166;2023-04-03T07:45:14;2.42;;;2.22;;
18754;SDS011;35061;47.664;9.166;2023-04-03T07:47:42;3.28;;;2.50;;
18754;SDS011;35061;47.664;9.166;2023-04-03T07:50:10;2.53;;;2.30;;
18754;SDS011;35061;47.664;9.166;2023-04-03T07:52:38;2.47;;;2.20;;
18754;SDS011;35061;47.664;9.166;2023-04-03T07:55:06;2.37;;;2.17;;
18754;SDS011;35061;47.664;9.166;2023-04-03T07:57:34;2.60;;;2.35;;
18754;SDS011;35061;47.664;9.166;2023-04-03T08:00:03;2.47;;;1.70;;
18754;SDS011;35061;47.664;9.166;2023-04-03T08:02:32;2.25;;;2.05;;
18754;SDS011;35061;47.664;9.166;2023-04-03T08:05:00;4.35;;;2.25;;
18754;SDS011;35061;47.664;9.166;2023-04-03T08:07:28;2.92;;;1.98;;
18754;SDS011;35061;47.664;9.166;2023-04-03T08:09:56;4.75;;;2.83;;
18754;SDS011;35061;47.664;9.166;2023-04-03T08:12:24;3.28;;;2.70;;
18754;SDS011;35061;47.664;9.166;2023-04-03T08:14:52;4.25;;;2.15;;
18754;SDS011;35061;47.664;9.166;2023-04-03T08:17:20;2.78;;;2.40;;
18754;SDS011;35061;47.664;9.166;2023-04-03T08:19:49;2.92;;;2.40;;
18754;SDS011;35061;47.664;9.166;2023-04-03T08:22:17;2.95;;;2.17;;
18754;SDS011;35061;47.664;9.166;2023-04-03T08:24:44;4.05;;;2.30;;
18754;SDS011;35061;47.664;9.166;2023-04-03T08:27:24;3.05;;;2.35;;
18754;SDS011;35061;47.664;9.166;2023-04-03T08:29:55;3.15;;;2.42;;
18754;SDS011;35061;47.664;9.166;2023-04-03T08:32:24;2.85;;;2.65;;
18754;SDS011;35061;47.664;9.166;2023-04-03T08:34:52;3.35;;;2.30;;
18754;SDS011;35061;47.664;9.166;2023-04-03T08:37:20;3.20;;;2.78;;
18754;SDS011;35061;47.664;9.166;2023-04-03T08:39:48;3.12;;;2.75;;
18754;SDS011;35061;47.664;9.166;2023-04-03T08:43:01;2.95;;;2.62;;
18754;SDS011;35061;47.664;9.166;2023-04-03T08:45:16;4.50;;;3.03;;
18754;SDS011;35061;47.664;9.166;2023-04-03T08:50:50;3.25;;;2.45;;
18754;SDS011;35061;47.664;9.166;2023-04-03T08:53:23;3.35;;;2.70;;
18754;SDS011;35061;47.664;9.166;2023-04-03T08:55:55;4.65;;;2.60;;
18754;SDS011;35061;47.664;9.166;2023-04-03T08:58:26;2.92;;;2.40;;
18754;SDS011;35061;47.664;9.166;2023-04-03T09:04:22;3.00;;;2.70;;
18754;SDS011;35061;47.664;9.166;2023-04-03T09:06:55;4.50;;;2.45;;
18754;SDS011;35061;47.664;9.166;2023-04-03T09:09:36;3.62;;;3.03;;
18754;SDS011;35061;47.664;9.166;2023-04-03T09:12:53;3.15;;;2.72;;
18754;SDS011;35061;47.664;9.166;2023-04-03T09:15:14;3.00;;;2.70;;
18754;SDS011;35061;47.664;9.166;2023-04-03T09:20:46;3.00;;;2.78;;
18754;SDS011;35061;47.664;9.166;2023-04-03T09:23:36;3.08;;;2.70;;
18754;SDS011;35061;47.664;9.166;2023-04-03T09:26:19;2.97;;;2.75;;
18754;SDS011;35061;47.664;9.166;2023-04-03T09:29:07;6.43;;;2.80;;
18754;SDS011;35061;47.664;9.166;2023-04-03T09:31:37;3.53;;;2.67;;
18754;SDS011;35061;47.664;9.166;2023-04-03T09:34:15;3.20;;;2.90;;
18754;SDS011;35061;47.664;9.166;2023-04-03T09:36:50;2.87;;;2.60;;
18754;SDS011;35061;47.664;9.166;2023-04-03T09:39:22;3.65;;;3.08;;
18754;SDS011;35061;47.664;9.166;2023-04-03T09:44:42;2.87;;;2.67;;
18754;SDS011;35061;47.664;9.166;2023-04-03T09:50:09;4.32;;;2.72;;
18754;SDS011;35061;47.664;9.166;2023-04-03T09:52:49;2.95;;;2.42;;
18754;SDS011;35061;47.664;9.166;2023-04-03T09:55:23;2.92;;;2.72;;
18754;SDS011;35061;47.664;9.166;2023-04-03T09:58:01;3.50;;;3.05;;
18754;SDS011;35061;47.664;9.166;2023-04-03T10:00:33;3.05;;;2.83;;
18754;SDS011;35061;47.664;9.166;2023-04-03T10:03:04;3.10;;;2.80;;
18754;SDS011;35061;47.664;9.166;2023-04-03T10:05:37;2.72;;;2.53;;
18754;SDS011;35061;47.664;9.166;2023-04-03T10:08:14;3.80;;;3.05;;
18754;SDS011;35061;47.664;9.166;2023-04-03T10:10:48;3.97;;;2.92;;
18754;SDS011;35061;47.664;9.166;2023-04-03T10:13:49;3.15;;;2.70;;
18754;SDS011;35061;47.664;9.166;2023-04-03T10:16:30;2.65;;;2.45;;
18754;SDS011;35061;47.664;9.166;2023-04-03T10:19:31;2.78;;;2.47;;
18754;SDS011;35061;47.664;9.166;2023-04-03T10:21:59;2.30;;;2.10;;
18754;SDS011;35061;47.664;9.166;2023-04-03T10:25:11;2.78;;;2.30;;
18754;SDS011;35061;47.664;9.166;2023-04-03T10:27:29;2.35;;;2.15;;
18754;SDS011;35061;47.664;9.166;2023-04-03T10:50:35;4.35;;;3.00;;
18754;SDS011;35061;47.664;9.166;2023-04-03T10:53:34;3.08;;;2.55;;
18754;SDS011;35061;47.664;9.166;2023-04-03T10:58:57;3.60;;;2.72;;
18754;SDS011;35061;47.664;9.166;2023-04-03T11:01:35;3.60;;;2.90;;
18754;SDS011;35061;47.664;9.166;2023-04-03T11:04:08;3.37;;;2.62;;
18754;SDS011;35061;47.664;9.166;2023-04-03T11:06:40;3.87;;;2.40;;
18754;SDS011;35061;47.664;9.166;2023-04-03T11:12:12;3.08;;;2.40;;
18754;SDS011;35061;47.664;9.166;2023-04-03T11:14:46;3.70;;;2.50;;
18754;SDS011;35061;47.664;9.166;2023-04-03T11:25:03;2.33;;;2.00;;
18754;SDS011;35061;47.664;9.166;2023-04-03T11:28:05;2.90;;;2.40;;
18754;SDS011;35061;47.664;9.166;2023-04-03T11:30:43;2.37;;;2.12;;
18754;SDS011;35061;47.664;9.166;2023-04-03T11:36:47;2.28;;;2.08;;
18754;SDS011;35061;47.664;9.166;2023-04-03T11:39:22;3.42;;;2.40;;
18754;SDS011;35061;47.664;9.166;2023-04-03T11:41:54;2.42;;;2.25;;
18754;SDS011;35061;47.664;9.166;2023-04-03T11:44:37;2.15;;;2.03;;
18754;SDS011;35061;47.664;9.166;2023-04-03T11:47:06;1.85;;;1.75;;
18754;SDS011;35061;47.664;9.166;2023-04-03T11:53:48;2.67;;;2.47;;
18754;SDS011;35061;47.664;9.166;2023-04-03T12:04:11;2.00;;;1.90;;
18754;SDS011;35061;47.664;9.166;2023-04-03T12:06:49;1.95;;;1.77;;
18754;SDS011;35061;47.664;9.166;2023-04-03T12:15:22;2.42;;;2.22;;
18754;SDS011;35061;47.664;9.166;2023-04-03T12:17:51;1.92;;;1.83;;
18754;SDS011;35061;47.664;9.166;2023-04-03T12:23:34;2.22;;;2.03;;
18754;SDS011;35061;47.664;9.166;2023-04-03T12:26:18;3.28;;;2.97;;
18754;SDS011;35061;47.664;9.166;2023-04-03T12:28:50;2.60;;;2.00;;
18754;SDS011;35061;47.664;9.166;2023-04-03T12:31:22;2.60;;;2.08;;
18754;SDS011;35061;47.664;9.166;2023-04-03T12:36:38;2.62;;;2.12;;
18754;SDS011;35061;47.664;9.166;2023-04-03T12:47:48;2.92;;;1.80;;
18754;SDS011;35061;47.664;9.166;2023-04-03T12:50:22;2.75;;;1.80;;
18754;SDS011;35061;47.664;9.166;2023-04-03T12:52:57;2.17;;;1.98;;
18754;SDS011;35061;47.664;9.166;2023-04-03T12:55:33;2.12;;;1.92;;
18754;SDS011;35061;47.664;9.166;2023-04-03T12:58:24;2.28;;;2.08;;
18754;SDS011;35061;47.664;9.166;2023-04-03T13:01:01;3.92;;;2.03;;
18754;SDS011;35061;47.664;9.166;2023-04-03T13:03:43;5.03;;;2.20;;
18754;SDS011;35061;47.664;9.166;2023-04-03T13:06:21;2.50;;;2.30;;
18754;SDS011;35061;47.664;9.166;2023-04-03T13:08:59;2.33;;;1.95;;
18754;SDS011;35061;47.664;9.166;2023-04-03T13:11:32;1.80;;;1.65;;
18754;SDS011;35061;47.664;9.166;2023-04-03T13:14:12;2.42;;;2.22;;
18754;SDS011;35061;47.664;9.166;2023-04-03T13:17:27;3.78;;;2.17;;
18754;SDS011;35061;47.664;9.166;2023-04-03T13:19:40;2.28;;;1.60;;
18754;SDS011;35061;47.664;9.166;2023-04-03T13:24:56;2.33;;;2.12;;
18754;SDS011;35061;47.664;9.166;2023-04-03T13:27:29;3.87;;;1.87;;
18754;SDS011;35061;47.664;9.166;2023-04-03T13:30:00;1.70;;;1.60;;
18754;SDS011;35061;47.664;9.166;2023-04-03T13:32:30;2.10;;;1.90;;
18754;SDS011;35061;47.664;9.166;2023-04-03T13:34:59;3.08;;;2.10;;
18754;SDS011;35061;47.664;9.166;2023-04-03T13:37:52;2.60;;;2.40;;
18754;SDS011;35061;47.664;9.166;2023-04-03T13:40:22;2.55;;;2.10;;
18754;SDS011;35061;47.664;9.166;2023-04-03T13:42:58;2.37;;;2.17;;
18754;SDS011;35061;47.664;9.166;2023-04-03T13:45:56;1.98;;;1.77;;
18754;SDS011;35061;47.664;9.166;2023-04-03T13:48:26;2.08;;;1.80;;
18754;SDS011;35061;47.664;9.166;2023-04-03T13:51:07;2.87;;;1.87;;
18754;SDS011;35061;47.664;9.166;2023-04-03T13:53:55;3.65;;;2.03;;
18754;SDS011;35061;47.664;9.166;2023-04-03T14:01:39;2.17;;;1.80;;
18754;SDS011;35061;47.664;9.166;2023-04-03T14:04:17;2.10;;;1.80;;
18754;SDS011;35061;47.664;9.166;2023-04-03T14:06:48;2.60;;;2.00;;
18754;SDS011;35061;47.664;9.166;2023-04-03T14:09:17;2.17;;;1.77;;
18754;SDS011;35061;47.664;9.166;2023-04-03T14:11:47;2.10;;;2.00;;
18754;SDS011;35061;47.664;9.166;2023-04-03T14:14:20;3.45;;;2.22;;
18754;SDS011;35061;47.664;9.166;2023-04-03T14:16:51;2.78;;;1.90;;
18754;SDS011;35061;47.664;9.166;2023-04-03T14:19:23;2.10;;;1.90;;
18754;SDS011;35061;47.664;9.166;2023-04-03T14:22:10;1.87;;;1.62;;
18754;SDS011;35061;47.664;9.166;2023-04-03T14:24:41;2.85;;;2.22;;
18754;SDS011;35061;47.664;9.166;2023-04-03T14:27:15;1.92;;;1.83;;
18754;SDS011;35061;47.664;9.166;2023-04-03T14:29:51;2.22;;;1.90;;
18754;SDS011;35061;47.664;9.166;2023-04-03T14:32:21;3.17;;;2.03;;
18754;SDS011;35061;47.664;9.166;2023-04-03T14:34:50;2.50;;;2.05;;
18754;SDS011;35061;47.664;9.166;2023-04-03T14:37:21;2.35;;;2.08;;
18754;SDS011;35061;47.664;9.166;2023-04-03T14:39:51;2.12;;;1.92;;
18754;SDS011;35061;47.664;9.166;2023-04-03T14:42:22;2.22;;;2.03;;
18754;SDS011;35061;47.664;9.166;2023-04-03T14:44:53;2.65;;;2.00;;
18754;SDS011;35061;47.664;9.166;2023-04-03T14:47:22;1.90;;;1.80;;
18754;SDS011;35061;47.664;9.166;2023-04-03T14:49:58;1.90;;;1.80;;
18754;SDS011;35061;47.664;9.166;2023-04-03T14:52:29;3.05;;;1.95;;
18754;SDS011;35061;47.664;9.166;2023-04-03T14:54:59;2.05;;;1.90;;
18754;SDS011;35061;47.664;9.166;2023-04-03T14:57:29;2.92;;;1.87;;
18754;SDS011;35061;47.664;9.166;2023-04-03T14:59:58;2.60;;;2.30;;
18754;SDS011;35061;47.664;9.166;2023-04-03T15:02:30;3.58;;;2.30;;
18754;SDS011;35061;47.664;9.166;2023-04-03T15:05:01;2.33;;;2.12;;
18754;SDS011;35061;47.664;9.166;2023-04-03T15:07:32;2.37;;;2.10;;
18754;SDS011;35061;47.664;9.166;2023-04-03T15:10:05;3.28;;;2.25;;
18754;SDS011;35061;47.664;9.166;2023-04-03T15:12:47;3.75;;;2.47;;
18754;SDS011;35061;47.664;9.166;2023-04-03T15:15:17;2.50;;;2.30;;
18754;SDS011;35061;47.664;9.166;2023-04-03T15:17:55;2.08;;;1.98;;
18754;SDS011;35061;47.664;9.166;2023-04-03T15:20:27;2.58;;;2.03;;
18754;SDS011;35061;47.664;9.166;2023-04-03T15:22:59;3.05;;;2.10;;
18754;SDS011;35061;47.664;9.166;2023-04-03T15:25:28;2.53;;;2.25;;
18754;SDS011;35061;47.664;9.166;2023-04-03T15:27:57;2.85;;;2.58;;
18754;SDS011;35061;47.664;9.166;2023-04-03T15:30:25;2.75;;;2.12;;
18754;SDS011;35061;47.664;9.166;2023-04-03T15:32:53;2.00;;;1.80;;
18754;SDS011;35061;47.664;9.166;2023-04-03T15:35:21;2.50;;;2.30;;
18754;SDS011;35061;47.664;9.166;2023-04-03T15:37:49;1.77;;;1.67;;
18754;SDS011;35061;47.664;9.166;2023-04-03T15:40:18;2.80;;;2.00;;
18754;SDS011;35061;47.664;9.166;2023-04-03T15:42:46;3.05;;;2.03;;
18754;SDS011;35061;47.664;9.166;2023-04-03T15:45:16;2.53;;;2.10;;
18754;SDS011;35061;47.664;9.166;2023-04-03T15:47:44;2.65;;;2.17;;
18754;SDS011;35061;47.664;9.166;2023-04-03T15:50:12;2.25;;;2.05;;
18754;SDS011;35061;47.664;9.166;2023-04-03T15:52:40;3.45;;;2.60;;
18754;SDS011;35061;47.664;9.166;2023-04-03T15:55:08;2.53;;;2.10;;
18754;SDS011;35061;47.664;9.166;2023-04-03T15:57:36;2.30;;;2.08;;
18754;SDS011;35061;47.664;9.166;2023-04-03T16:00:06;2.47;;;2.28;;
18754;SDS011;35061;47.664;9.166;2023-04-03T16:02:34;3.25;;;2.20;;
18754;SDS011;35061;47.664;9.166;2023-04-03T16:05:03;2.47;;;2.22;;
18754;SDS011;35061;47.664;9.166;2023-04-03T16:07:31;2.45;;;2.12;;
18754;SDS011;35061;47.664;9.166;2023-04-03T16:09:59;3.22;;;2.15;;
18754;SDS011;35061;47.664;9.166;2023-04-03T16:12:27;3.40;;;2.47;;
18754;SDS011;35061;47.664;9.166;2023-04-03T16:14:55;2.53;;;2.00;;
18754;SDS011;35061;47.664;9.166;2023-04-03T16:17:23;2.28;;;2.05;;
18754;SDS011;35061;47.664;9.166;2023-04-03T16:19:51;2.40;;;2.20;;
18754;SDS011;35061;47.664;9.166;2023-04-03T16:22:20;2.42;;;2.10;;
18754;SDS011;35061;47.664;9.166;2023-04-03T16:24:48;2.33;;;2.12;;
18754;SDS011;35061;47.664;9.166;2023-04-03T16:27:17;2.72;;;2.22;;
18754;SDS011;35061;47.664;9.166;2023-04-03T16:29:45;3.62;;;2.58;;
18754;SDS011;35061;47.664;9.166;2023-04-03T16:32:13;3.20;;;2.37;;
18754;SDS011;35061;47.664;9.166;2023-04-03T16:34:41;2.90;;;2.12;;
18754;SDS011;35061;47.664;9.166;2023-04-03T16:37:10;2.87;;;2.10;;
18754;SDS011;35061;47.664;9.166;2023-04-03T16:39:38;3.30;;;2.20;;
18754;SDS011;35061;47.664;9.166;2023-04-03T16:42:06;2.78;;;2.55;;
18754;SDS011;35061;47.664;9.166;2023-04-03T16:44:34;2.85;;;2.55;;
18754;SDS011;35061;47.664;9.166;2023-04-03T16:47:02;2.40;;;2.03;;
18754;SDS011;35061;47.664;9.166;2023-04-03T16:49:31;3.90;;;2.15;;